sensor_id;sensor_type;location;lat;lon;timestamp;P1;durP1;ratioP1;P2;durP2;ratioP2
72557;SDS011;60583;50.094;8.748;2023-03-20T00:00:21;6.00;;;3.83;;
72557;SDS011;60583;50.094;8.748;2023-03-20T00:03:02;5.72;;;3.80;;
72557;SDS011;60583;50.094;8.748;2023-03-20T00:05:28;6.22;;;3.50;;
72557;SDS011;60583;50.094;8.748;2023-03-20T00:07:55;6.15;;;3.50;;
72557;SDS011;60583;50.094;8.748;2023-03-20T00:10:24;6.38;;;3.55;;
72557;SDS011;60583;50.094;8.748;2023-03-20T00:12:55;5.72;;;3.67;;
72557;SDS011;60583;50.094;8.748;2023-03-20T00:15:23;6.07;;;3.60;;
72557;SDS011;60583;50.094;8.748;2023-03-20T00:17:51;6.25;;;3.50;;
72557;SDS011;60583;50.094;8.748;2023-03-20T00:20:17;5.15;;;3.30;;
72557;SDS011;60583;50.094;8.748;2023-03-20T00:22:43;5.90;;;3.17;;
72557;SDS011;60583;50.094;8.748;2023-03-20T00:25:12;5.50;;;3.40;;
72557;SDS011;60583;50.094;8.748;2023-03-20T00:27:42;5.60;;;3.33;;
72557;SDS011;60583;50.094;8.748;2023-03-20T00:30:18;5.78;;;3.30;;
72557;SDS011;60583;50.094;8.748;2023-03-20T00:32:52;5.90;;;3.20;;
72557;SDS011;60583;50.094;8.748;2023-03-20T00:35:26;6.75;;;3.67;;
72557;SDS011;60583;50.094;8.748;2023-03-20T00:37:54;5.75;;;3.33;;
72557;SDS011;60583;50.094;8.748;2023-03-20T00:40:21;5.78;;;3.10;;
72557;SDS011;60583;50.094;8.748;2023-03-20T00:42:53;5.40;;;3.33;;
72557;SDS011;60583;50.094;8.748;2023-03-20T00:45:23;6.93;;;3.05;;
72557;SDS011;60583;50.094;8.748;2023-03-20T00:47:49;5.88;;;3.25;;
72557;SDS011;60583;50.094;8.748;2023-03-20T00:50:23;5.32;;;2.90;;
72557;SDS011;60583;50.094;8.748;2023-03-20T00:52:50;5.35;;;2.90;;
72557;SDS011;60583;50.094;8.748;2023-03-20T00:55:17;6.03;;;3.20;;
72557;SDS011;60583;50.094;8.748;2023-03-20T01:00:20;5.78;;;3.50;;
72557;SDS011;60583;50.094;8.748;2023-03-20T01:03:15;6.15;;;3.38;;
72557;SDS011;60583;50.094;8.748;2023-03-20T01:05:43;6.18;;;3.20;;
72557;SDS011;60583;50.094;8.748;2023-03-20T01:08:14;6.97;;;3.35;;
72557;SDS011;60583;50.094;8.748;2023-03-20T01:10:44;6.50;;;3.47;;
72557;SDS011;60583;50.094;8.748;2023-03-20T01:13:22;5.22;;;3.00;;
72557;SDS011;60583;50.094;8.748;2023-03-20T01:15:53;5.57;;;3.10;;
72557;SDS011;60583;50.094;8.748;2023-03-20T01:18:21;5.60;;;3.30;;
72557;SDS011;60583;50.094;8.748;2023-03-20T01:20:48;6.05;;;3.17;;
72557;SDS011;60583;50.094;8.748;2023-03-20T01:23:15;6.63;;;3.47;;
72557;SDS011;60583;50.094;8.748;2023-03-20T01:25:41;5.82;;;3.22;;
72557;SDS011;60583;50.094;8.748;2023-03-20T01:28:11;6.55;;;3.28;;
72557;SDS011;60583;50.094;8.748;2023-03-20T01:30:48;7.25;;;3.55;;
72557;SDS011;60583;50.094;8.748;2023-03-20T01:33:18;6.90;;;3.60;;
72557;SDS011;60583;50.094;8.748;2023-03-20T01:35:46;5.97;;;3.28;;
72557;SDS011;60583;50.094;8.748;2023-03-20T01:38:14;6.25;;;3.65;;
72557;SDS011;60583;50.094;8.748;2023-03-20T01:40:53;5.57;;;3.33;;
72557;SDS011;60583;50.094;8.748;2023-03-20T01:43:23;6.43;;;3.75;;
72557;SDS011;60583;50.094;8.748;2023-03-20T01:45:55;6.80;;;3.78;;
72557;SDS011;60583;50.094;8.748;2023-03-20T01:48:26;5.15;;;3.08;;
72557;SDS011;60583;50.094;8.748;2023-03-20T01:51:02;5.75;;;3.42;;
72557;SDS011;60583;50.094;8.748;2023-03-20T01:53:27;5.90;;;3.45;;
72557;SDS011;60583;50.094;8.748;2023-03-20T01:55:55;5.78;;;3.22;;
72557;SDS011;60583;50.094;8.748;2023-03-20T01:58:30;5.63;;;3.22;;
72557;SDS011;60583;50.094;8.748;2023-03-20T02:01:03;6.93;;;3.53;;
72557;SDS011;60583;50.094;8.748;2023-03-20T02:03:32;5.57;;;3.40;;
72557;SDS011;60583;50.094;8.748;2023-03-20T02:05:58;7.25;;;3.65;;
72557;SDS011;60583;50.094;8.748;2023-03-20T02:08:28;6.78;;;4.00;;
72557;SDS011;60583;50.094;8.748;2023-03-20T02:10:56;6.45;;;3.53;;
72557;SDS011;60583;50.094;8.748;2023-03-20T02:13:25;7.05;;;4.05;;
72557;SDS011;60583;50.094;8.748;2023-03-20T02:15:54;7.55;;;4.10;;
72557;SDS011;60583;50.094;8.748;2023-03-20T02:18:21;8.05;;;3.92;;
72557;SDS011;60583;50.094;8.748;2023-03-20T02:26:34;7.63;;;4.30;;
72557;SDS011;60583;50.094;8.748;2023-03-20T02:29:28;7.43;;;4.20;;
72557;SDS011;60583;50.094;8.748;2023-03-20T02:32:24;7.80;;;4.45;;
72557;SDS011;60583;50.094;8.748;2023-03-20T02:39:10;7.13;;;4.45;;
72557;SDS011;60583;50.094;8.748;2023-03-20T02:41:44;7.78;;;3.83;;
72557;SDS011;60583;50.094;8.748;2023-03-20T02:44:37;7.28;;;4.00;;
72557;SDS011;60583;50.094;8.748;2023-03-20T02:47:14;8.60;;;4.80;;
72557;SDS011;60583;50.094;8.748;2023-03-20T02:52:38;7.55;;;4.53;;
72557;SDS011;60583;50.094;8.748;2023-03-20T02:55:18;9.45;;;4.53;;
72557;SDS011;60583;50.094;8.748;2023-03-20T02:58:12;10.40;;;5.15;;
72557;SDS011;60583;50.094;8.748;2023-03-20T03:00:51;10.32;;;5.55;;
72557;SDS011;60583;50.094;8.748;2023-03-20T03:06:19;10.23;;;5.10;;
72557;SDS011;60583;50.094;8.748;2023-03-20T03:08:51;9.88;;;5.40;;
72557;SDS011;60583;50.094;8.748;2023-03-20T03:11:37;9.02;;;5.10;;
72557;SDS011;60583;50.094;8.748;2023-03-20T03:14:08;8.68;;;4.63;;
72557;SDS011;60583;50.094;8.748;2023-03-20T03:16:42;9.57;;;5.25;;
72557;SDS011;60583;50.094;8.748;2023-03-20T03:19:13;10.15;;;5.32;;
72557;SDS011;60583;50.094;8.748;2023-03-20T03:21:42;10.05;;;5.40;;
72557;SDS011;60583;50.094;8.748;2023-03-20T03:24:22;9.77;;;5.20;;
72557;SDS011;60583;50.094;8.748;2023-03-20T03:26:54;9.50;;;5.03;;
72557;SDS011;60583;50.094;8.748;2023-03-20T03:29:21;10.63;;;5.50;;
72557;SDS011;60583;50.094;8.748;2023-03-20T03:31:48;10.98;;;5.63;;
72557;SDS011;60583;50.094;8.748;2023-03-20T03:34:15;10.88;;;5.68;;
72557;SDS011;60583;50.094;8.748;2023-03-20T03:37:01;9.05;;;4.95;;
72557;SDS011;60583;50.094;8.748;2023-03-20T03:42:08;10.00;;;5.47;;
72557;SDS011;60583;50.094;8.748;2023-03-20T03:44:47;11.75;;;6.45;;
72557;SDS011;60583;50.094;8.748;2023-03-20T03:47:31;12.43;;;6.40;;
72557;SDS011;60583;50.094;8.748;2023-03-20T03:50:09;11.38;;;5.95;;
72557;SDS011;60583;50.094;8.748;2023-03-20T03:52:40;11.57;;;6.97;;
72557;SDS011;60583;50.094;8.748;2023-03-20T03:55:13;19.27;;;10.80;;
72557;SDS011;60583;50.094;8.748;2023-03-20T04:00:30;14.43;;;7.68;;
72557;SDS011;60583;50.094;8.748;2023-03-20T04:02:58;12.00;;;6.45;;
72557;SDS011;60583;50.094;8.748;2023-03-20T04:05:26;13.30;;;7.05;;
72557;SDS011;60583;50.094;8.748;2023-03-20T04:07:57;15.23;;;7.30;;
72557;SDS011;60583;50.094;8.748;2023-03-20T04:10:24;12.32;;;6.18;;
72557;SDS011;60583;50.094;8.748;2023-03-20T04:12:49;10.88;;;6.38;;
72557;SDS011;60583;50.094;8.748;2023-03-20T04:15:15;11.52;;;5.80;;
72557;SDS011;60583;50.094;8.748;2023-03-20T04:17:42;12.65;;;6.50;;
72557;SDS011;60583;50.094;8.748;2023-03-20T04:20:09;11.93;;;6.65;;
72557;SDS011;60583;50.094;8.748;2023-03-20T04:22:34;11.50;;;6.45;;
72557;SDS011;60583;50.094;8.748;2023-03-20T04:25:00;13.95;;;6.93;;
72557;SDS011;60583;50.094;8.748;2023-03-20T04:27:28;11.25;;;6.32;;
72557;SDS011;60583;50.094;8.748;2023-03-20T04:29:53;12.70;;;7.20;;
72557;SDS011;60583;50.094;8.748;2023-03-20T04:32:19;12.23;;;6.68;;
72557;SDS011;60583;50.094;8.748;2023-03-20T04:34:45;13.40;;;7.45;;
72557;SDS011;60583;50.094;8.748;2023-03-20T04:37:11;13.48;;;7.38;;
72557;SDS011;60583;50.094;8.748;2023-03-20T04:39:37;12.93;;;7.38;;
72557;SDS011;60583;50.094;8.748;2023-03-20T04:42:02;12.07;;;7.28;;
72557;SDS011;60583;50.094;8.748;2023-03-20T04:44:29;12.90;;;6.72;;
72557;SDS011;60583;50.094;8.748;2023-03-20T04:46:54;14.63;;;7.55;;
72557;SDS011;60583;50.094;8.748;2023-03-20T04:49:20;14.05;;;7.47;;
72557;SDS011;60583;50.094;8.748;2023-03-20T04:51:46;13.18;;;7.20;;
72557;SDS011;60583;50.094;8.748;2023-03-20T04:54:11;15.32;;;7.43;;
72557;SDS011;60583;50.094;8.748;2023-03-20T04:56:37;13.60;;;7.28;;
72557;SDS011;60583;50.094;8.748;2023-03-20T04:59:02;12.50;;;6.95;;
72557;SDS011;60583;50.094;8.748;2023-03-20T05:01:27;13.60;;;7.20;;
72557;SDS011;60583;50.094;8.748;2023-03-20T05:03:53;12.68;;;7.00;;
72557;SDS011;60583;50.094;8.748;2023-03-20T05:06:25;14.65;;;7.93;;
72557;SDS011;60583;50.094;8.748;2023-03-20T05:08:51;12.50;;;7.10;;
72557;SDS011;60583;50.094;8.748;2023-03-20T05:11:17;12.48;;;7.07;;
72557;SDS011;60583;50.094;8.748;2023-03-20T05:13:42;13.70;;;7.63;;
72557;SDS011;60583;50.094;8.748;2023-03-20T05:16:07;12.93;;;7.93;;
72557;SDS011;60583;50.094;8.748;2023-03-20T05:18:33;13.65;;;7.55;;
72557;SDS011;60583;50.094;8.748;2023-03-20T05:20:59;12.35;;;7.10;;
72557;SDS011;60583;50.094;8.748;2023-03-20T05:23:25;13.88;;;7.97;;
72557;SDS011;60583;50.094;8.748;2023-03-20T05:25:51;14.63;;;8.40;;
72557;SDS011;60583;50.094;8.748;2023-03-20T05:28:16;14.13;;;7.72;;
72557;SDS011;60583;50.094;8.748;2023-03-20T05:30:42;13.85;;;8.18;;
72557;SDS011;60583;50.094;8.748;2023-03-20T05:33:07;14.25;;;7.97;;
72557;SDS011;60583;50.094;8.748;2023-03-20T05:35:33;14.07;;;8.32;;
72557;SDS011;60583;50.094;8.748;2023-03-20T05:37:58;14.75;;;8.18;;
72557;SDS011;60583;50.094;8.748;2023-03-20T05:40:24;14.77;;;7.55;;
72557;SDS011;60583;50.094;8.748;2023-03-20T05:42:50;15.85;;;8.85;;
72557;SDS011;60583;50.094;8.748;2023-03-20T05:45:17;13.40;;;7.60;;
72557;SDS011;60583;50.094;8.748;2023-03-20T05:47:43;14.80;;;8.38;;
72557;SDS011;60583;50.094;8.748;2023-03-20T05:50:09;16.30;;;8.50;;
72557;SDS011;60583;50.094;8.748;2023-03-20T05:52:35;14.32;;;8.30;;
72557;SDS011;60583;50.094;8.748;2023-03-20T05:55:01;15.95;;;8.77;;
72557;SDS011;60583;50.094;8.748;2023-03-20T05:57:26;15.82;;;8.60;;
72557;SDS011;60583;50.094;8.748;2023-03-20T05:59:52;15.13;;;8.38;;
72557;SDS011;60583;50.094;8.748;2023-03-20T06:02:17;15.15;;;8.10;;
72557;SDS011;60583;50.094;8.748;2023-03-20T06:04:43;16.40;;;8.55;;
72557;SDS011;60583;50.094;8.748;2023-03-20T06:07:08;18.52;;;9.35;;
72557;SDS011;60583;50.094;8.748;2023-03-20T06:09:34;18.02;;;8.95;;
72557;SDS011;60583;50.094;8.748;2023-03-20T06:12:00;21.02;;;9.57;;
72557;SDS011;60583;50.094;8.748;2023-03-20T06:14:25;18.35;;;9.02;;
72557;SDS011;60583;50.094;8.748;2023-03-20T06:16:50;19.88;;;9.68;;
72557;SDS011;60583;50.094;8.748;2023-03-20T06:19:18;18.73;;;9.85;;
72557;SDS011;60583;50.094;8.748;2023-03-20T06:21:44;18.63;;;9.23;;
72557;SDS011;60583;50.094;8.748;2023-03-20T06:24:10;22.98;;;10.10;;
72557;SDS011;60583;50.094;8.748;2023-03-20T06:26:36;18.80;;;9.57;;
72557;SDS011;60583;50.094;8.748;2023-03-20T06:29:01;18.42;;;9.50;;
72557;SDS011;60583;50.094;8.748;2023-03-20T06:31:27;17.52;;;8.93;;
72557;SDS011;60583;50.094;8.748;2023-03-20T06:33:53;18.98;;;9.60;;
72557;SDS011;60583;50.094;8.748;2023-03-20T06:36:18;18.17;;;9.05;;
72557;SDS011;60583;50.094;8.748;2023-03-20T06:38:44;18.25;;;10.10;;
72557;SDS011;60583;50.094;8.748;2023-03-20T06:41:10;17.73;;;8.75;;
72557;SDS011;60583;50.094;8.748;2023-03-20T06:43:35;17.38;;;8.73;;
72557;SDS011;60583;50.094;8.748;2023-03-20T06:46:01;18.80;;;9.80;;
72557;SDS011;60583;50.094;8.748;2023-03-20T06:48:27;18.67;;;9.48;;
72557;SDS011;60583;50.094;8.748;2023-03-20T06:50:52;18.23;;;9.73;;
72557;SDS011;60583;50.094;8.748;2023-03-20T06:53:18;21.60;;;9.90;;
72557;SDS011;60583;50.094;8.748;2023-03-20T06:55:50;19.33;;;9.95;;
72557;SDS011;60583;50.094;8.748;2023-03-20T06:58:16;19.05;;;9.35;;
72557;SDS011;60583;50.094;8.748;2023-03-20T07:00:41;20.90;;;9.95;;
72557;SDS011;60583;50.094;8.748;2023-03-20T07:03:07;19.60;;;9.73;;
72557;SDS011;60583;50.094;8.748;2023-03-20T07:05:34;21.13;;;10.43;;
72557;SDS011;60583;50.094;8.748;2023-03-20T07:08:00;22.00;;;10.13;;
72557;SDS011;60583;50.094;8.748;2023-03-20T07:10:25;20.58;;;10.05;;
72557;SDS011;60583;50.094;8.748;2023-03-20T07:12:52;21.23;;;10.80;;
72557;SDS011;60583;50.094;8.748;2023-03-20T07:15:18;22.92;;;10.85;;
72557;SDS011;60583;50.094;8.748;2023-03-20T07:17:44;21.25;;;10.35;;
72557;SDS011;60583;50.094;8.748;2023-03-20T07:20:10;20.30;;;10.05;;
72557;SDS011;60583;50.094;8.748;2023-03-20T07:22:35;22.38;;;10.48;;
72557;SDS011;60583;50.094;8.748;2023-03-20T07:25:01;24.88;;;11.32;;
72557;SDS011;60583;50.094;8.748;2023-03-20T07:27:27;22.50;;;11.40;;
72557;SDS011;60583;50.094;8.748;2023-03-20T07:29:52;25.05;;;11.23;;
72557;SDS011;60583;50.094;8.748;2023-03-20T07:32:18;25.52;;;11.25;;
72557;SDS011;60583;50.094;8.748;2023-03-20T07:34:44;23.05;;;10.77;;
72557;SDS011;60583;50.094;8.748;2023-03-20T07:37:11;21.70;;;10.68;;
72557;SDS011;60583;50.094;8.748;2023-03-20T07:39:37;20.65;;;10.73;;
72557;SDS011;60583;50.094;8.748;2023-03-20T07:42:03;23.48;;;10.85;;
72557;SDS011;60583;50.094;8.748;2023-03-20T07:44:28;26.17;;;11.35;;
72557;SDS011;60583;50.094;8.748;2023-03-20T07:46:54;33.65;;;16.58;;
72557;SDS011;60583;50.094;8.748;2023-03-20T07:49:20;34.90;;;17.52;;
72557;SDS011;60583;50.094;8.748;2023-03-20T07:51:46;26.77;;;12.38;;
72557;SDS011;60583;50.094;8.748;2023-03-20T07:54:13;26.08;;;11.55;;
72557;SDS011;60583;50.094;8.748;2023-03-20T07:56:39;25.30;;;11.52;;
72557;SDS011;60583;50.094;8.748;2023-03-20T07:59:05;24.33;;;11.82;;
72557;SDS011;60583;50.094;8.748;2023-03-20T08:01:31;25.13;;;11.05;;
72557;SDS011;60583;50.094;8.748;2023-03-20T08:03:57;25.55;;;11.55;;
72557;SDS011;60583;50.094;8.748;2023-03-20T08:06:22;25.38;;;12.68;;
72557;SDS011;60583;50.094;8.748;2023-03-20T08:08:48;23.33;;;10.77;;
72557;SDS011;60583;50.094;8.748;2023-03-20T08:11:17;25.50;;;11.50;;
72557;SDS011;60583;50.094;8.748;2023-03-20T08:13:43;27.02;;;12.07;;
72557;SDS011;60583;50.094;8.748;2023-03-20T08:16:10;27.23;;;13.77;;
72557;SDS011;60583;50.094;8.748;2023-03-20T08:18:36;35.35;;;16.92;;
72557;SDS011;60583;50.094;8.748;2023-03-20T08:21:01;27.15;;;13.02;;
72557;SDS011;60583;50.094;8.748;2023-03-20T08:23:27;26.50;;;12.25;;
72557;SDS011;60583;50.094;8.748;2023-03-20T08:25:52;24.17;;;11.70;;
72557;SDS011;60583;50.094;8.748;2023-03-20T08:28:21;26.35;;;12.65;;
72557;SDS011;60583;50.094;8.748;2023-03-20T08:30:47;25.27;;;12.02;;
72557;SDS011;60583;50.094;8.748;2023-03-20T08:33:14;27.33;;;12.05;;
72557;SDS011;60583;50.094;8.748;2023-03-20T08:35:40;26.45;;;12.07;;
72557;SDS011;60583;50.094;8.748;2023-03-20T08:38:11;27.30;;;12.40;;
72557;SDS011;60583;50.094;8.748;2023-03-20T08:40:40;25.10;;;11.75;;
72557;SDS011;60583;50.094;8.748;2023-03-20T08:43:06;23.30;;;10.65;;
72557;SDS011;60583;50.094;8.748;2023-03-20T08:45:32;24.85;;;11.35;;
72557;SDS011;60583;50.094;8.748;2023-03-20T08:47:58;26.42;;;12.48;;
72557;SDS011;60583;50.094;8.748;2023-03-20T08:50:23;27.10;;;13.05;;
72557;SDS011;60583;50.094;8.748;2023-03-20T08:52:49;30.20;;;12.52;;
72557;SDS011;60583;50.094;8.748;2023-03-20T08:55:14;30.95;;;13.30;;
72557;SDS011;60583;50.094;8.748;2023-03-20T08:57:41;31.35;;;13.55;;
72557;SDS011;60583;50.094;8.748;2023-03-20T09:00:07;31.90;;;14.15;;
72557;SDS011;60583;50.094;8.748;2023-03-20T09:02:36;32.33;;;13.77;;
72557;SDS011;60583;50.094;8.748;2023-03-20T09:05:01;31.00;;;13.93;;
72557;SDS011;60583;50.094;8.748;2023-03-20T09:07:27;33.65;;;13.93;;
72557;SDS011;60583;50.094;8.748;2023-03-20T09:09:52;32.38;;;14.23;;
72557;SDS011;60583;50.094;8.748;2023-03-20T09:12:18;38.33;;;15.35;;
72557;SDS011;60583;50.094;8.748;2023-03-20T09:14:43;34.22;;;14.45;;
72557;SDS011;60583;50.094;8.748;2023-03-20T09:17:09;36.65;;;14.98;;
72557;SDS011;60583;50.094;8.748;2023-03-20T09:19:34;34.08;;;14.48;;
72557;SDS011;60583;50.094;8.748;2023-03-20T09:22:03;37.03;;;14.63;;
72557;SDS011;60583;50.094;8.748;2023-03-20T09:24:29;32.63;;;14.25;;
72557;SDS011;60583;50.094;8.748;2023-03-20T09:26:55;35.88;;;15.00;;
72557;SDS011;60583;50.094;8.748;2023-03-20T09:29:21;34.58;;;14.75;;
72557;SDS011;60583;50.094;8.748;2023-03-20T09:31:46;36.60;;;15.52;;
72557;SDS011;60583;50.094;8.748;2023-03-20T09:34:11;36.83;;;15.90;;
72557;SDS011;60583;50.094;8.748;2023-03-20T09:36:37;38.40;;;15.27;;
72557;SDS011;60583;50.094;8.748;2023-03-20T09:39:03;36.80;;;15.15;;
72557;SDS011;60583;50.094;8.748;2023-03-20T09:41:28;38.60;;;15.48;;
72557;SDS011;60583;50.094;8.748;2023-03-20T09:47:08;35.75;;;14.85;;
72557;SDS011;60583;50.094;8.748;2023-03-20T09:49:44;37.13;;;15.55;;
72557;SDS011;60583;50.094;8.748;2023-03-20T09:52:21;32.28;;;14.98;;
72557;SDS011;60583;50.094;8.748;2023-03-20T09:57:46;37.97;;;14.63;;
72557;SDS011;60583;50.094;8.748;2023-03-20T10:00:26;36.60;;;15.27;;
72557;SDS011;60583;50.094;8.748;2023-03-20T10:03:04;37.40;;;15.20;;
72557;SDS011;60583;50.094;8.748;2023-03-20T10:05:38;34.85;;;14.95;;
72557;SDS011;60583;50.094;8.748;2023-03-20T10:08:11;34.22;;;15.55;;
72557;SDS011;60583;50.094;8.748;2023-03-20T10:10:46;35.78;;;14.63;;
72557;SDS011;60583;50.094;8.748;2023-03-20T10:16:12;33.40;;;14.25;;
72557;SDS011;60583;50.094;8.748;2023-03-20T10:18:50;26.60;;;12.18;;
72557;SDS011;60583;50.094;8.748;2023-03-20T10:21:46;25.23;;;12.60;;
72557;SDS011;60583;50.094;8.748;2023-03-20T10:24:21;24.60;;;12.05;;
72557;SDS011;60583;50.094;8.748;2023-03-20T10:27:01;27.10;;;12.40;;
72557;SDS011;60583;50.094;8.748;2023-03-20T10:33:02;24.33;;;12.60;;
72557;SDS011;60583;50.094;8.748;2023-03-20T10:48:26;21.38;;;9.77;;
72557;SDS011;60583;50.094;8.748;2023-03-20T10:51:00;19.73;;;9.30;;
72557;SDS011;60583;50.094;8.748;2023-03-20T10:53:29;18.17;;;9.50;;
72557;SDS011;60583;50.094;8.748;2023-03-20T10:55:59;19.58;;;10.65;;
72557;SDS011;60583;50.094;8.748;2023-03-20T10:58:30;17.40;;;9.20;;
72557;SDS011;60583;50.094;8.748;2023-03-20T11:01:01;19.02;;;9.38;;
72557;SDS011;60583;50.094;8.748;2023-03-20T11:03:29;16.50;;;8.93;;
72557;SDS011;60583;50.094;8.748;2023-03-20T11:08:40;15.48;;;7.85;;
72557;SDS011;60583;50.094;8.748;2023-03-20T11:11:10;15.85;;;7.93;;
72557;SDS011;60583;50.094;8.748;2023-03-20T11:13:40;13.00;;;7.13;;
72557;SDS011;60583;50.094;8.748;2023-03-20T11:16:15;14.07;;;7.22;;
72557;SDS011;60583;50.094;8.748;2023-03-20T11:18:44;13.52;;;7.28;;
72557;SDS011;60583;50.094;8.748;2023-03-20T11:21:28;12.65;;;7.03;;
72557;SDS011;60583;50.094;8.748;2023-03-20T11:23:55;14.25;;;7.65;;
72557;SDS011;60583;50.094;8.748;2023-03-20T11:26:42;14.32;;;6.93;;
72557;SDS011;60583;50.094;8.748;2023-03-20T11:29:08;11.85;;;6.60;;
72557;SDS011;60583;50.094;8.748;2023-03-20T11:31:46;13.25;;;7.05;;
72557;SDS011;60583;50.094;8.748;2023-03-20T11:36:52;12.07;;;6.70;;
72557;SDS011;60583;50.094;8.748;2023-03-20T11:41:50;13.35;;;6.85;;
72557;SDS011;60583;50.094;8.748;2023-03-20T11:46:59;13.60;;;6.75;;
72557;SDS011;60583;50.094;8.748;2023-03-20T11:49:27;14.00;;;6.75;;
72557;SDS011;60583;50.094;8.748;2023-03-20T11:52:16;13.70;;;6.70;;
72557;SDS011;60583;50.094;8.748;2023-03-20T11:54:45;14.45;;;6.75;;
72557;SDS011;60583;50.094;8.748;2023-03-20T12:02:34;13.70;;;6.43;;
72557;SDS011;60583;50.094;8.748;2023-03-20T12:05:49;11.05;;;5.95;;
72557;SDS011;60583;50.094;8.748;2023-03-20T12:07:57;11.68;;;5.95;;
72557;SDS011;60583;50.094;8.748;2023-03-20T12:10:28;12.30;;;6.22;;
72557;SDS011;60583;50.094;8.748;2023-03-20T12:13:00;11.43;;;6.22;;
72557;SDS011;60583;50.094;8.748;2023-03-20T12:15:32;10.55;;;6.00;;
72557;SDS011;60583;50.094;8.748;2023-03-20T12:18:11;10.65;;;5.97;;
72557;SDS011;60583;50.094;8.748;2023-03-20T12:21:03;10.95;;;5.65;;
72557;SDS011;60583;50.094;8.748;2023-03-20T12:23:43;9.90;;;5.65;;
72557;SDS011;60583;50.094;8.748;2023-03-20T12:26:33;11.63;;;5.88;;
72557;SDS011;60583;50.094;8.748;2023-03-20T12:29:36;11.38;;;6.50;;
72557;SDS011;60583;50.094;8.748;2023-03-20T12:35:08;13.88;;;6.45;;
72557;SDS011;60583;50.094;8.748;2023-03-20T12:37:47;11.15;;;5.63;;
72557;SDS011;60583;50.094;8.748;2023-03-20T12:40:14;12.98;;;6.82;;
72557;SDS011;60583;50.094;8.748;2023-03-20T12:45:27;10.05;;;5.20;;
72557;SDS011;60583;50.094;8.748;2023-03-20T12:57:04;8.80;;;4.47;;
72557;SDS011;60583;50.094;8.748;2023-03-20T12:59:56;10.63;;;4.85;;
72557;SDS011;60583;50.094;8.748;2023-03-20T13:02:57;8.85;;;4.78;;
72557;SDS011;60583;50.094;8.748;2023-03-20T13:05:40;8.50;;;4.57;;
72557;SDS011;60583;50.094;8.748;2023-03-20T13:10:42;7.47;;;3.88;;
72557;SDS011;60583;50.094;8.748;2023-03-20T13:13:34;9.02;;;4.22;;
72557;SDS011;60583;50.094;8.748;2023-03-20T13:19:02;8.30;;;4.30;;
72557;SDS011;60583;50.094;8.748;2023-03-20T13:21:41;8.77;;;4.20;;
72557;SDS011;60583;50.094;8.748;2023-03-20T13:24:40;8.82;;;4.20;;
72557;SDS011;60583;50.094;8.748;2023-03-20T13:27:24;8.50;;;4.05;;
72557;SDS011;60583;50.094;8.748;2023-03-20T13:30:26;8.20;;;3.80;;
72557;SDS011;60583;50.094;8.748;2023-03-20T13:38:25;8.40;;;3.47;;
72557;SDS011;60583;50.094;8.748;2023-03-20T13:40:56;6.75;;;3.25;;
72557;SDS011;60583;50.094;8.748;2023-03-20T13:46:17;6.60;;;2.92;;
72557;SDS011;60583;50.094;8.748;2023-03-20T13:48:41;6.10;;;3.08;;
72557;SDS011;60583;50.094;8.748;2023-03-20T13:59:34;4.75;;;2.35;;
72557;SDS011;60583;50.094;8.748;2023-03-20T14:05:04;6.88;;;3.45;;
72557;SDS011;60583;50.094;8.748;2023-03-20T14:07:36;8.73;;;4.15;;
72557;SDS011;60583;50.094;8.748;2023-03-20T14:12:47;4.35;;;2.20;;
72557;SDS011;60583;50.094;8.748;2023-03-20T14:15:14;4.18;;;2.00;;
72557;SDS011;60583;50.094;8.748;2023-03-20T14:17:43;4.55;;;1.90;;
72557;SDS011;60583;50.094;8.748;2023-03-20T14:20:18;4.82;;;2.10;;
72557;SDS011;60583;50.094;8.748;2023-03-20T14:22:51;4.40;;;2.00;;
72557;SDS011;60583;50.094;8.748;2023-03-20T14:25:17;5.72;;;1.98;;
72557;SDS011;60583;50.094;8.748;2023-03-20T14:27:58;4.55;;;1.90;;
72557;SDS011;60583;50.094;8.748;2023-03-20T14:33:05;5.57;;;2.00;;
72557;SDS011;60583;50.094;8.748;2023-03-20T14:35:36;4.80;;;2.05;;
72557;SDS011;60583;50.094;8.748;2023-03-20T14:41:04;4.97;;;2.03;;
72557;SDS011;60583;50.094;8.748;2023-03-20T14:57:49;7.07;;;3.88;;
72557;SDS011;60583;50.094;8.748;2023-03-20T15:02:47;5.65;;;2.55;;
72557;SDS011;60583;50.094;8.748;2023-03-20T15:05:28;5.68;;;2.50;;
72557;SDS011;60583;50.094;8.748;2023-03-20T15:07:57;4.72;;;2.30;;
72557;SDS011;60583;50.094;8.748;2023-03-20T15:10:50;5.20;;;2.30;;
72557;SDS011;60583;50.094;8.748;2023-03-20T15:13:19;6.80;;;2.80;;
72557;SDS011;60583;50.094;8.748;2023-03-20T15:15:52;6.72;;;3.40;;
72557;SDS011;60583;50.094;8.748;2023-03-20T15:18:20;5.78;;;2.40;;
72557;SDS011;60583;50.094;8.748;2023-03-20T15:20:47;6.20;;;2.85;;
72557;SDS011;60583;50.094;8.748;2023-03-20T15:23:13;5.38;;;2.63;;
72557;SDS011;60583;50.094;8.748;2023-03-20T15:28:05;6.20;;;2.35;;
72557;SDS011;60583;50.094;8.748;2023-03-20T15:30:32;6.40;;;2.47;;
72557;SDS011;60583;50.094;8.748;2023-03-20T15:33:02;6.32;;;2.63;;
72557;SDS011;60583;50.094;8.748;2023-03-20T15:35:28;5.07;;;2.50;;
72557;SDS011;60583;50.094;8.748;2023-03-20T15:37:54;7.22;;;2.65;;
72557;SDS011;60583;50.094;8.748;2023-03-20T15:40:29;7.82;;;2.65;;
72557;SDS011;60583;50.094;8.748;2023-03-20T15:43:02;7.47;;;2.80;;
72557;SDS011;60583;50.094;8.748;2023-03-20T15:45:32;5.47;;;2.58;;
72557;SDS011;60583;50.094;8.748;2023-03-20T15:48:00;6.45;;;2.95;;
72557;SDS011;60583;50.094;8.748;2023-03-20T15:50:53;7.22;;;2.78;;
72557;SDS011;60583;50.094;8.748;2023-03-20T15:53:43;5.22;;;2.60;;
72557;SDS011;60583;50.094;8.748;2023-03-20T15:56:10;5.32;;;2.65;;
72557;SDS011;60583;50.094;8.748;2023-03-20T15:58:42;6.13;;;2.30;;
72557;SDS011;60583;50.094;8.748;2023-03-20T16:01:10;5.53;;;2.40;;
72557;SDS011;60583;50.094;8.748;2023-03-20T16:03:41;4.70;;;2.00;;
72557;SDS011;60583;50.094;8.748;2023-03-20T16:06:07;4.18;;;1.95;;
72557;SDS011;60583;50.094;8.748;2023-03-20T16:08:35;5.95;;;2.47;;
72557;SDS011;60583;50.094;8.748;2023-03-20T16:11:11;5.13;;;2.35;;
72557;SDS011;60583;50.094;8.748;2023-03-20T16:13:39;8.40;;;3.00;;
72557;SDS011;60583;50.094;8.748;2023-03-20T16:16:16;9.23;;;3.40;;
72557;SDS011;60583;50.094;8.748;2023-03-20T16:18:44;8.07;;;3.70;;
72557;SDS011;60583;50.094;8.748;2023-03-20T16:21:17;15.68;;;7.95;;
72557;SDS011;60583;50.094;8.748;2023-03-20T16:23:47;5.68;;;2.63;;
72557;SDS011;60583;50.094;8.748;2023-03-20T16:26:17;4.88;;;2.15;;
72557;SDS011;60583;50.094;8.748;2023-03-20T16:28:45;5.72;;;2.10;;
72557;SDS011;60583;50.094;8.748;2023-03-20T16:33:49;5.53;;;1.83;;
72557;SDS011;60583;50.094;8.748;2023-03-20T16:36:16;5.22;;;2.30;;
72557;SDS011;60583;50.094;8.748;2023-03-20T16:38:55;5.55;;;2.22;;
72557;SDS011;60583;50.094;8.748;2023-03-20T16:41:35;4.80;;;1.77;;
72557;SDS011;60583;50.094;8.748;2023-03-20T16:44:11;5.05;;;1.83;;
72557;SDS011;60583;50.094;8.748;2023-03-20T16:46:53;4.22;;;1.75;;
72557;SDS011;60583;50.094;8.748;2023-03-20T16:52:00;3.88;;;1.30;;
72557;SDS011;60583;50.094;8.748;2023-03-20T16:54:28;2.83;;;1.17;;
72557;SDS011;60583;50.094;8.748;2023-03-20T16:56:57;3.78;;;1.52;;
72557;SDS011;60583;50.094;8.748;2023-03-20T16:59:24;3.88;;;1.50;;
72557;SDS011;60583;50.094;8.748;2023-03-20T17:01:50;4.65;;;1.30;;
72557;SDS011;60583;50.094;8.748;2023-03-20T17:04:19;5.30;;;1.73;;
72557;SDS011;60583;50.094;8.748;2023-03-20T17:06:52;6.45;;;2.17;;
72557;SDS011;60583;50.094;8.748;2023-03-20T17:09:23;7.15;;;2.90;;
72557;SDS011;60583;50.094;8.748;2023-03-20T17:14:40;3.40;;;1.50;;